createdAt,value
2018-09-23T00:02:03.170Z,101428.75
2018-09-23T00:05:27.597Z,101426.80
2018-09-23T00:08:52.024Z,101411.52
2018-09-23T00:12:16.551Z,101389.69
2018-09-23T00:15:41.145Z,101389.33
2018-09-23T00:19:05.807Z,101376.16
2018-09-23T00:22:30.439Z,101371.09
2018-09-23T00:25:54.994Z,101349.94
2018-09-23T00:29:23.533Z,101353.23
2018-09-23T00:32:47.990Z,101356.47
2018-09-23T00:36:12.482Z,101361.39
2018-09-23T00:39:36.887Z,101347.59
2018-09-23T00:43:01.350Z,101335.98
2018-09-23T00:46:25.839Z,101325.67
2018-09-23T00:49:50.263Z,101315.64
2018-09-23T00:53:14.714Z,101328.19
2018-09-23T00:56:39.415Z,101342.94
2018-09-23T01:00:03.891Z,101330.98
2018-09-23T01:03:28.367Z,101330.30
2018-09-23T01:06:52.793Z,101328.16
2018-09-23T01:10:17.590Z,101324.08
2018-09-23T01:13:42.072Z,101312.05
2018-09-23T01:17:06.804Z,101316.86
2018-09-23T01:20:31.282Z,101306.03
2018-09-23T01:23:55.789Z,101312.74
2018-09-23T01:27:20.227Z,101300.81
2018-09-23T01:30:44.669Z,101304.48
2018-09-23T01:34:09.076Z,101294.08
2018-09-23T01:37:33.552Z,101282.46
2018-09-23T01:40:57.925Z,101282.44
2018-09-23T01:44:22.471Z,101267.61
2018-09-23T01:47:46.898Z,101259.27
2018-09-23T01:51:11.325Z,101251.55
2018-09-23T01:54:35.864Z,101253.20
2018-09-23T01:58:00.367Z,101247.23
2018-09-23T02:01:24.820Z,101229.56
2018-09-23T02:04:49.329Z,101226.06
2018-09-23T02:08:13.778Z,101226.84
2018-09-23T02:11:38.239Z,101219.81
2018-09-23T02:15:02.719Z,101215.09
2018-09-23T02:18:27.137Z,101210.48
2018-09-23T02:21:51.534Z,101206.42
2018-09-23T02:25:15.978Z,101204.81
2018-09-23T02:28:40.453Z,101203.37
2018-09-23T02:32:05.312Z,101210.33
2018-09-23T02:35:29.721Z,101198.80
2018-09-23T02:38:54.349Z,101192.63
2018-09-23T02:42:18.773Z,101176.98
2018-09-23T02:45:43.164Z,101177.73
2018-09-23T02:49:07.779Z,101170.78
2018-09-23T02:52:32.248Z,101167.41
2018-09-23T02:55:56.746Z,101178.44
2018-09-23T02:59:21.241Z,101169.20
2018-09-23T03:02:45.666Z,101148.89
2018-09-23T03:06:10.082Z,101147.22
2018-09-23T03:09:34.469Z,101139.41
2018-09-23T03:12:58.851Z,101135.03
2018-09-23T03:16:23.304Z,101138.28
2018-09-23T03:19:47.780Z,101137.73
2018-09-23T03:23:12.168Z,101142.06
2018-09-23T03:26:36.608Z,101137.56
2018-09-23T03:30:01.004Z,101125.44
2018-09-23T03:33:25.419Z,101124.81
2018-09-23T03:36:49.821Z,101114.48
2018-09-23T03:40:14.252Z,101107.16
2018-09-23T03:43:38.679Z,101108.27
2018-09-23T03:47:03.087Z,101110.22
2018-09-23T03:50:27.477Z,101101.86
2018-09-23T03:53:51.891Z,101064.08
2018-09-23T03:57:16.290Z,101067.87
2018-09-23T04:00:40.736Z,101065.98
2018-09-23T04:04:05.153Z,101046.90
2018-09-23T04:07:29.546Z,101039.03
2018-09-23T04:10:53.958Z,101026.59
2018-09-23T04:14:18.367Z,101012.19
2018-09-23T04:17:42.879Z,101009.23
2018-09-23T04:21:07.417Z,101010.75
2018-09-23T04:24:31.835Z,101006.20
2018-09-23T04:27:56.237Z,101002.09
2018-09-23T04:31:20.736Z,100987.08
2018-09-23T04:34:45.219Z,100983.02
2018-09-23T04:38:09.726Z,100993.76
2018-09-23T04:41:34.155Z,101001.72
2018-09-23T04:44:59.064Z,101015.02
2018-09-23T04:48:23.493Z,101031.50
2018-09-23T04:51:48.080Z,101036.42
2018-09-23T04:55:12.551Z,101028.06
2018-09-23T04:58:36.993Z,101025.80
2018-09-23T05:02:01.503Z,101026.96
2018-09-23T05:05:25.980Z,101016.48
2018-09-23T05:08:50.485Z,101008.17
2018-09-23T05:12:15.011Z,100998.03
2018-09-23T05:15:39.654Z,100997.83
2018-09-23T05:19:04.279Z,100996.97
2018-09-23T05:22:28.729Z,100992.49
2018-09-23T05:25:53.147Z,100975.63
2018-09-23T05:29:17.603Z,100980.47
2018-09-23T05:32:42.067Z,100981.29
2018-09-23T05:36:06.531Z,100982.44
2018-09-23T05:39:30.944Z,100984.37
2018-09-23T05:42:55.438Z,100982.44
2018-09-23T05:46:19.929Z,100966.34
2018-09-23T05:49:44.340Z,100968.40
2018-09-23T05:53:08.803Z,100965.66
2018-09-23T05:56:33.231Z,100968.03
2018-09-23T05:59:58.585Z,100966.31
2018-09-23T06:03:23.042Z,100952.03
2018-09-23T06:06:47.473Z,100959.20
2018-09-23T06:10:12.051Z,100958.02
2018-09-23T06:13:36.485Z,100953.26
2018-09-23T06:17:00.971Z,100949.63
2018-09-23T06:20:25.391Z,100958.06
2018-09-23T06:23:49.843Z,100958.34
2018-09-23T06:27:14.283Z,100957.42
2018-09-23T06:30:38.688Z,100938.55
2018-09-23T06:34:03.196Z,100923.22
2018-09-23T06:37:27.602Z,100923.55
2018-09-23T06:40:52.065Z,100915.08
2018-09-23T06:44:16.501Z,100927.30
2018-09-23T06:47:40.922Z,100926.45
2018-09-23T06:51:05.693Z,100932.47
2018-09-23T06:54:30.235Z,100931.36
2018-09-23T06:57:54.668Z,100938.65
2018-09-23T07:01:19.063Z,100938.00
2018-09-23T07:04:43.617Z,100939.95
2018-09-23T07:08:08.207Z,100940.22
2018-09-23T07:11:32.722Z,100922.89
2018-09-23T07:14:57.104Z,100920.56
2018-09-23T07:18:28.681Z,100916.73
2018-09-23T07:21:53.140Z,100901.95
2018-09-23T07:25:17.758Z,100896.89
2018-09-23T07:28:42.150Z,100907.98
2018-09-23T07:32:06.679Z,100902.67
2018-09-23T07:35:31.624Z,100900.70
2018-09-23T07:38:56.039Z,100895.05
2018-09-23T07:42:20.872Z,100887.16
2018-09-23T07:45:45.835Z,100874.56
2018-09-23T07:49:11.275Z,100861.61
2018-09-23T07:52:35.844Z,100864.68
2018-09-23T07:56:00.458Z,100865.17
2018-09-23T07:59:24.959Z,100861.97
2018-09-23T08:02:49.387Z,100877.72
2018-09-23T08:06:13.822Z,100876.49
2018-09-23T08:09:38.262Z,100872.78
2018-09-23T08:13:02.787Z,100870.03
2018-09-23T08:16:27.263Z,100865.73
2018-09-23T08:19:51.860Z,100867.81
2018-09-23T08:23:16.192Z,100871.07
2018-09-23T08:26:40.635Z,100880.56
2018-09-23T08:30:05.327Z,100882.42
2018-09-23T08:33:30.353Z,100878.84
2018-09-23T08:36:55.215Z,100874.64
2018-09-23T08:40:19.658Z,100871.20
2018-09-23T08:43:47.278Z,100869.58
2018-09-23T08:47:11.849Z,100847.00
2018-09-23T08:50:36.318Z,100837.37
2018-09-23T08:54:00.841Z,100823.43
2018-09-23T08:57:25.884Z,100811.00
2018-09-23T09:00:51.340Z,100808.01
2018-09-23T09:04:19.232Z,100814.48
2018-09-23T09:07:43.974Z,100809.41
2018-09-23T09:11:08.438Z,100816.07
2018-09-23T09:14:33.054Z,100836.55
2018-09-23T09:17:58.040Z,100824.45
2018-09-23T09:21:22.557Z,100805.22
2018-09-23T09:24:47.378Z,100797.78
2018-09-23T09:28:11.881Z,100784.60
2018-09-23T09:31:36.630Z,100781.22
2018-09-23T09:35:01.137Z,100768.90
2018-09-23T09:38:25.689Z,100750.19
2018-09-23T09:41:50.168Z,100736.59
2018-09-23T09:45:15.169Z,100750.22
2018-09-23T09:48:39.821Z,100733.72
2018-09-23T09:52:04.461Z,100722.44
2018-09-23T09:55:29.313Z,100705.42
2018-09-23T09:58:54.366Z,100690.72
2018-09-23T10:02:19.362Z,100681.22
2018-09-23T10:05:43.819Z,100690.07
2018-09-23T10:09:10.451Z,100677.06
2018-09-23T10:12:34.957Z,100689.99
2018-09-23T10:15:59.491Z,100693.06
2018-09-23T10:19:23.988Z,100683.98
2018-09-23T10:22:48.615Z,100685.84
2018-09-23T10:26:12.957Z,100690.99
2018-09-23T10:29:37.461Z,100712.33
2018-09-23T10:33:01.869Z,100729.77
2018-09-23T10:36:26.385Z,100717.43
2018-09-23T10:39:51.360Z,100724.84
2018-09-23T10:43:15.919Z,100742.13
2018-09-23T10:46:40.353Z,100734.16
2018-09-23T10:50:04.892Z,100741.63
2018-09-23T10:53:29.851Z,100707.66
2018-09-23T10:56:54.273Z,100679.28
2018-09-23T11:00:18.735Z,100671.30
2018-09-23T11:03:43.221Z,100667.72
2018-09-23T11:07:07.735Z,100667.59
2018-09-23T11:10:32.240Z,100676.75
2018-09-23T11:13:56.829Z,100656.70
2018-09-23T11:17:21.382Z,100620.73
2018-09-23T11:20:45.919Z,100629.08
2018-09-23T11:24:10.445Z,100625.39
2018-09-23T11:27:35.040Z,100599.92
2018-09-23T11:30:59.661Z,100557.14
2018-09-23T11:34:24.193Z,100531.73
2018-09-23T11:37:48.636Z,100529.83
2018-09-23T11:41:13.133Z,100500.44
2018-09-23T11:44:37.599Z,100528.75
2018-09-23T11:48:02.166Z,100554.91
2018-09-23T11:51:26.801Z,100588.00
2018-09-23T11:54:51.333Z,100662.00
2018-09-23T11:58:15.822Z,100694.61
2018-09-23T12:01:40.585Z,100675.80
2018-09-23T12:05:04.953Z,100651.52
2018-09-23T12:08:29.398Z,100641.09
2018-09-23T12:11:53.944Z,100649.58
2018-09-23T12:15:18.421Z,100675.05
2018-09-23T12:18:43.576Z,100685.51
2018-09-23T12:22:08.393Z,100711.81
2018-09-23T12:25:32.925Z,100739.88
2018-09-23T12:28:57.500Z,100748.36
2018-09-23T12:32:22.100Z,100782.97
2018-09-23T12:35:46.627Z,100737.75
2018-09-23T12:39:12.196Z,100684.02
2018-09-23T12:42:36.743Z,100643.80
2018-09-23T12:46:01.286Z,100653.87
2018-09-23T12:49:26.777Z,100650.91
2018-09-23T12:52:51.675Z,100666.78
2018-09-23T12:56:17.132Z,100669.36
2018-09-23T12:59:41.975Z,100665.45
2018-09-23T13:03:06.891Z,100654.73
2018-09-23T13:06:31.330Z,100661.38
2018-09-23T13:09:55.878Z,100655.60
2018-09-23T13:13:20.402Z,100640.59
2018-09-23T13:16:44.857Z,100652.16
2018-09-23T13:20:09.384Z,100654.11
2018-09-23T13:23:33.898Z,100675.03
2018-09-23T13:26:58.573Z,100690.41
2018-09-23T13:30:23.254Z,100682.55
2018-09-23T13:33:47.695Z,100703.48
2018-09-23T13:37:12.144Z,100682.04
2018-09-23T13:40:36.580Z,100701.61
2018-09-23T13:44:01.048Z,100715.05
2018-09-23T13:47:25.522Z,100743.86
2018-09-23T13:50:54.308Z,100776.28
2018-09-23T14:02:12.948Z,100826.24
2018-09-23T14:05:37.356Z,100839.73
2018-09-23T14:09:02.670Z,100830.47
2018-09-23T14:12:27.153Z,100831.04
2018-09-23T14:15:52.342Z,100834.05
2018-09-23T14:19:16.858Z,100839.00
2018-09-23T14:22:41.261Z,100832.10
2018-09-23T14:26:05.700Z,100857.55
2018-09-23T14:29:30.136Z,100861.58
2018-09-23T14:32:54.537Z,100865.78
2018-09-23T14:36:18.941Z,100885.59
2018-09-23T14:39:43.338Z,100875.62
2018-09-23T14:43:07.790Z,100890.61
2018-09-23T14:46:32.198Z,100888.86
2018-09-23T14:49:56.631Z,100911.00
2018-09-23T14:53:21.133Z,100922.37
2018-09-23T14:56:45.736Z,100903.62
2018-09-23T15:00:10.442Z,100908.47
2018-09-23T15:03:34.960Z,100925.63
2018-09-23T15:06:59.908Z,100934.28
2018-09-23T15:10:24.379Z,100943.81
2018-09-23T15:13:49.076Z,100958.93
2018-09-23T15:17:17.473Z,100971.45
2018-09-23T15:20:42.312Z,100969.08
2018-09-23T15:24:10.354Z,100962.98
2018-09-23T15:27:35.456Z,100947.99
2018-09-23T15:31:00.357Z,100940.67
2018-09-23T15:34:27.309Z,100975.50
2018-09-23T15:37:52.338Z,100989.70
2018-09-23T15:41:17.760Z,100989.48
2018-09-23T15:44:42.622Z,100998.50
2018-09-23T15:48:11.217Z,101024.62
2018-09-23T15:51:35.868Z,101036.20
2018-09-23T15:55:00.722Z,101060.67
2018-09-23T15:58:25.347Z,101088.93
2018-09-23T16:01:51.313Z,101105.45
2018-09-23T16:05:16.960Z,101124.89
2018-09-23T16:08:42.603Z,101142.81
2018-09-23T16:12:07.163Z,101152.14
2018-09-23T16:15:32.383Z,101165.57
2018-09-23T16:18:56.853Z,101161.98
2018-09-23T16:22:21.281Z,101172.63
2018-09-23T16:25:46.611Z,101170.39
2018-09-23T16:29:11.042Z,101176.37
2018-09-23T16:32:35.550Z,101185.98
2018-09-23T16:36:01.012Z,101196.22
2018-09-23T16:39:25.486Z,101220.34
2018-09-23T16:42:50.004Z,101235.09
2018-09-23T16:46:14.514Z,101253.14
2018-09-23T16:49:38.992Z,101274.36
2018-09-23T16:53:03.465Z,101274.53
2018-09-23T16:56:27.903Z,101291.42
2018-09-23T16:59:52.529Z,101302.79
2018-09-23T17:03:19.202Z,101321.30
2018-09-23T17:06:43.823Z,101329.63
2018-09-23T17:10:08.943Z,101331.64
2018-09-23T17:13:33.953Z,101348.13
2018-09-23T17:16:58.490Z,101358.47
2018-09-23T17:20:22.934Z,101383.34
2018-09-23T17:23:47.438Z,101393.36
2018-09-23T17:27:11.914Z,101404.27
2018-09-23T17:30:36.394Z,101421.61
2018-09-23T17:34:00.896Z,101430.41
2018-09-23T17:37:26.042Z,101443.81
2018-09-23T17:40:51.372Z,101454.05
2018-09-23T17:44:15.852Z,101463.81
2018-09-23T17:47:40.287Z,101471.56
2018-09-23T17:51:04.805Z,101488.59
2018-09-23T17:54:29.439Z,101499.53
2018-09-23T17:57:53.843Z,101513.27
2018-09-23T18:01:18.289Z,101526.00
2018-09-23T18:04:42.783Z,101531.72
2018-09-23T18:08:07.261Z,101550.30
2018-09-23T18:11:31.707Z,101559.58
2018-09-23T18:14:56.109Z,101574.12
2018-09-23T18:18:20.667Z,101586.19
2018-09-23T18:21:45.417Z,101594.16
2018-09-23T18:25:10.095Z,101606.53
2018-09-23T18:28:34.986Z,101615.65
2018-09-23T18:31:59.582Z,101634.20
2018-09-23T18:35:24.115Z,101644.73
2018-09-23T18:38:48.795Z,101652.48
2018-09-23T18:42:13.448Z,101672.61
2018-09-23T18:45:38.013Z,101669.40
2018-09-23T18:49:02.802Z,101677.17
2018-09-23T18:52:27.391Z,101689.77
2018-09-23T18:55:53.145Z,101706.92
2018-09-23T18:59:17.782Z,101705.77
2018-09-23T19:02:42.227Z,101717.39
2018-09-23T19:06:06.654Z,101717.32
2018-09-23T19:09:31.147Z,101728.67
2018-09-23T19:13:00.987Z,101731.94
2018-09-23T19:16:32.663Z,101728.45
2018-09-23T19:20:02.544Z,101740.05
2018-09-23T19:23:27.041Z,101755.36
2018-09-23T19:26:51.718Z,101776.18
2018-09-23T19:30:16.350Z,101774.36
2018-09-23T19:33:40.812Z,101783.81
2018-09-23T19:37:05.392Z,101807.84
2018-09-23T19:40:30.276Z,101819.95
2018-09-23T19:43:54.970Z,101832.26
2018-09-23T19:47:19.514Z,101841.22
2018-09-23T19:50:44.280Z,101855.15
2018-09-23T19:57:23.506Z,101875.30
2018-09-23T20:00:48.210Z,101878.56
2018-09-23T20:04:19.426Z,101882.36
2018-09-23T20:07:43.996Z,101893.11
2018-09-23T20:11:08.621Z,101899.48
2018-09-23T20:14:34.491Z,101904.00
2018-09-23T20:17:58.991Z,101906.43
2018-09-23T20:21:23.437Z,101909.22
2018-09-23T20:24:47.870Z,101917.14
2018-09-23T20:28:12.353Z,101924.67
2018-09-23T20:31:36.754Z,101918.09
2018-09-23T20:35:01.184Z,101930.94
2018-09-23T20:38:25.691Z,101951.93
2018-09-23T20:41:50.135Z,101959.77
2018-09-23T20:45:14.613Z,101967.09
2018-09-23T20:48:39.042Z,101974.23
2018-09-23T20:52:03.477Z,101983.73
2018-09-23T20:55:27.909Z,101992.70
2018-09-23T20:58:52.410Z,102006.05
2018-09-23T21:02:16.969Z,102015.63
2018-09-23T21:05:41.508Z,102026.48
2018-09-23T21:09:09.446Z,102036.02
2018-09-23T21:12:33.986Z,102045.30
2018-09-23T21:15:58.562Z,102049.50
2018-09-23T21:19:23.042Z,102057.19
2018-09-23T21:22:47.501Z,102066.44
2018-09-23T21:26:12.172Z,102065.43
2018-09-23T21:29:36.729Z,102070.22
2018-09-23T21:33:01.307Z,102079.75
2018-09-23T21:36:25.720Z,102074.95
2018-09-23T21:39:50.176Z,102090.66
2018-09-23T21:43:14.738Z,102093.86
2018-09-23T21:46:39.207Z,102105.08
2018-09-23T21:50:03.665Z,102112.33
2018-09-23T21:53:28.061Z,102124.72
2018-09-23T21:56:52.499Z,102122.42
2018-09-23T22:00:16.987Z,102128.09
2018-09-23T22:03:41.375Z,102141.05
2018-09-23T22:07:05.912Z,102138.59
2018-09-23T22:10:30.364Z,102140.42
2018-09-23T22:13:54.755Z,102161.00
2018-09-23T22:17:19.170Z,102161.19
2018-09-23T22:20:43.556Z,102172.98
2018-09-23T22:24:08.199Z,102177.36
2018-09-23T22:27:32.835Z,102177.65
2018-09-23T22:30:57.280Z,102187.41
2018-09-23T22:34:21.661Z,102183.38
2018-09-23T22:37:46.131Z,102198.62
2018-09-23T22:41:10.578Z,102210.23
2018-09-23T22:44:35.004Z,102218.03
2018-09-23T22:47:59.393Z,102222.15
2018-09-23T22:51:23.792Z,102239.80
2018-09-23T22:54:48.307Z,102236.08
2018-09-23T22:58:12.742Z,102243.98
2018-09-23T23:01:37.162Z,102255.19
2018-09-23T23:05:01.577Z,102258.95
2018-09-23T23:08:25.961Z,102267.03
2018-09-23T23:11:50.484Z,102275.34
2018-09-23T23:15:15.040Z,102279.70
2018-09-23T23:18:39.492Z,102281.55
2018-09-23T23:22:04.093Z,102284.03
2018-09-23T23:25:28.560Z,102288.72
2018-09-23T23:28:53.079Z,102299.48
2018-09-23T23:32:17.724Z,102311.33
2018-09-23T23:35:42.214Z,102319.09
2018-09-23T23:39:09.456Z,102332.99
2018-09-23T23:42:33.891Z,102334.68
2018-09-23T23:45:58.353Z,102332.36
2018-09-23T23:49:22.797Z,102343.36
2018-09-23T23:52:59.712Z,102360.27
2018-09-23T23:56:24.241Z,102365.19
2018-09-23T23:59:48.799Z,102375.63
